Time;durP1;ratioP1;P1;durP2;ratioP2;P2;SDS_P1;SDS_P2;PMS_P1;PMS_P2;Temp;Humidity;BMP_temperature;BMP_pressure;BME280_temperature;BME280_humidity;BME280_pressure;Samples;Min_cycle;Max_cycle;Signal;HPM_P1;HPM_P2
2021/11/02 00:00:40;;;;;;;5.50;3.57;;;10.20;99.90;;;;;;5021665;28;21093;-67
2021/11/02 00:03:13;;;;;;;4.90;3.80;;;10.10;99.90;;;;;;5022450;28;20672;-67
2021/11/02 00:05:39;;;;;;;4.83;3.93;;;10.10;99.90;;;;;;5021353;28;20623;-66
2021/11/02 00:08:07;;;;;;;8.13;4.10;;;10.10;99.90;;;;;;5025217;28;20620;-66
2021/11/02 00:10:40;;;;;;;7.60;4.20;;;10.10;99.90;;;;;;5021499;28;20660;-67
2021/11/02 00:13:05;;;;;;;7.20;4.20;;;10.10;99.90;;;;;;5022139;28;20636;-68
2021/11/02 00:15:33;;;;;;;4.77;3.50;;;10.00;99.90;;;;;;5023813;28;20678;-68
2021/11/02 00:18:03;;;;;;;5.47;4.30;;;10.00;99.90;;;;;;5023087;28;20328;-68
2021/11/02 00:20:30;;;;;;;7.07;3.70;;;9.90;99.90;;;;;;5020221;28;20736;-67
2021/11/02 00:22:58;;;;;;;4.93;3.63;;;9.90;99.90;;;;;;5023750;28;20717;-68
2021/11/02 00:25:25;;;;;;;4.73;4.07;;;10.00;99.90;;;;;;5025309;28;21177;-68
2021/11/02 00:27:54;;;;;;;5.53;4.10;;;9.90;99.90;;;;;;5024875;28;20608;-68
2021/11/02 00:30:23;;;;;;;4.83;3.73;;;9.90;99.90;;;;;;5006148;28;20953;-66
2021/11/02 00:32:52;;;;;;;5.60;4.20;;;10.00;99.90;;;;;;5022889;28;20673;-66
2021/11/02 00:35:24;;;;;;;5.83;3.30;;;10.00;99.90;;;;;;5023613;28;20763;-67
2021/11/02 00:37:53;;;;;;;6.30;3.80;;;9.90;99.90;;;;;;5019245;28;20714;-66
2021/11/02 00:40:23;;;;;;;4.97;3.60;;;9.90;99.90;;;;;;5020607;28;20632;-67
2021/11/02 00:42:53;;;;;;;8.43;4.37;;;9.90;99.90;;;;;;5004402;28;20701;-68
2021/11/02 00:45:31;;;;;;;4.27;3.87;;;9.90;99.90;;;;;;5020779;28;21334;-68
2021/11/02 00:47:59;;;;;;;5.40;3.80;;;9.90;99.90;;;;;;5021665;28;21146;-67
2021/11/02 00:50:27;;;;;;;5.80;4.33;;;9.80;99.90;;;;;;5022148;28;20670;-67
2021/11/02 00:52:56;;;;;;;5.13;3.80;;;9.80;99.90;;;;;;5022065;28;20675;-66
2021/11/02 00:55:22;;;;;;;6.77;3.80;;;9.80;99.90;;;;;;5023143;28;20746;-68
2021/11/02 00:57:58;;;;;;;4.73;3.77;;;9.70;99.90;;;;;;5023196;28;20698;-68
2021/11/02 01:00:26;;;;;;;7.37;4.10;;;9.80;99.90;;;;;;5021912;28;20366;-68
2021/11/02 01:02:52;;;;;;;6.30;4.13;;;9.80;99.90;;;;;;5020513;28;20651;-68
2021/11/02 01:05:20;;;;;;;4.70;4.03;;;9.80;99.90;;;;;;5019836;28;20642;-67
2021/11/02 01:07:48;;;;;;;5.23;3.70;;;9.70;99.90;;;;;;5020659;28;20362;-67
2021/11/02 01:10:24;;;;;;;7.40;4.30;;;9.80;99.90;;;;;;5020401;28;20694;-68
2021/11/02 01:12:52;;;;;;;5.97;4.10;;;9.80;99.90;;;;;;5020567;28;22791;-68
2021/11/02 01:15:21;;;;;;;6.00;3.77;;;9.80;99.90;;;;;;5020495;28;20746;-68
2021/11/02 01:17:49;;;;;;;5.40;3.77;;;9.80;99.90;;;;;;5018785;28;20678;-67
2021/11/02 01:20:18;;;;;;;5.93;3.80;;;9.80;99.90;;;;;;5018334;28;20638;-66
2021/11/02 01:22:48;;;;;;;5.13;3.83;;;9.70;99.90;;;;;;5018523;28;20646;-67
2021/11/02 01:25:18;;;;;;;7.73;3.90;;;9.70;99.90;;;;;;5020955;28;21137;-68
2021/11/02 01:27:44;;;;;;;5.63;3.90;;;9.80;99.90;;;;;;5018301;28;20695;-67
2021/11/02 01:30:13;;;;;;;8.03;4.50;;;9.80;99.90;;;;;;5017070;28;20705;-68
2021/11/02 01:32:44;;;;;;;7.40;4.70;;;9.70;99.90;;;;;;5017300;28;20647;-67
2021/11/02 01:35:15;;;;;;;8.20;4.30;;;9.80;99.90;;;;;;5001780;28;20958;-66
2021/11/02 01:37:46;;;;;;;6.27;3.90;;;9.80;99.90;;;;;;5015888;28;20714;-68
2021/11/02 01:40:18;;;;;;;4.83;4.37;;;9.80;99.90;;;;;;5016778;28;20631;-67
2021/11/02 01:42:47;;;;;;;3.80;3.40;;;9.60;99.90;;;;;;5018539;28;20678;-67
2021/11/02 01:45:15;;;;;;;4.73;3.50;;;9.70;99.90;;;;;;5017360;28;20627;-67
2021/11/02 01:47:44;;;;;;;7.67;4.00;;;9.60;99.90;;;;;;5008984;28;20649;-67
2021/11/02 01:50:10;;;;;;;6.40;3.97;;;9.60;99.90;;;;;;5018235;28;20634;-67
2021/11/02 01:52:46;;;;;;;9.13;4.50;;;9.60;99.90;;;;;;5021706;28;21162;-66
2021/11/02 01:55:14;;;;;;;6.10;4.00;;;9.60;99.90;;;;;;5019500;28;20677;-68
2021/11/02 01:57:44;;;;;;;4.50;4.10;;;9.60;99.90;;;;;;5021165;28;20604;-66
2021/11/02 02:00:16;;;;;;;6.97;4.00;;;9.60;99.90;;;;;;4996950;28;20731;-67
2021/11/02 02:03:03;;;;;;;5.30;3.80;;;9.60;99.90;;;;;;5018687;28;20734;-67
2021/11/02 02:06:00;;;;;;;4.70;4.10;;;9.70;99.90;;;;;;5018148;28;20689;-68
2021/11/02 02:08:35;;;;;;;4.60;4.10;;;9.60;99.90;;;;;;5019715;28;21111;-68
2021/11/02 02:11:25;;;;;;;5.70;4.00;;;9.60;99.90;;;;;;5018082;28;20642;-67
2021/11/02 02:14:09;;;;;;;5.83;4.40;;;9.60;99.90;;;;;;5019277;28;20756;-67
2021/11/02 02:16:44;;;;;;;4.70;3.90;;;9.60;99.90;;;;;;5018993;28;20643;-66
2021/11/02 02:19:18;;;;;;;8.00;3.63;;;9.50;99.90;;;;;;5020450;28;20734;-68
2021/11/02 02:22:15;;;;;;;4.87;4.37;;;9.50;99.90;;;;;;5021335;28;20746;-68
2021/11/02 02:25:16;;;;;;;5.43;3.90;;;9.50;99.90;;;;;;5020719;28;20897;-68
2021/11/02 02:27:47;;;;;;;5.50;4.03;;;9.50;99.90;;;;;;5020507;28;20695;-68
2021/11/02 02:30:17;;;;;;;4.40;4.00;;;9.40;99.90;;;;;;5016458;28;20632;-67
2021/11/02 02:32:48;;;;;;;5.70;4.13;;;9.40;99.90;;;;;;5020184;28;20643;-68
2021/11/02 02:35:18;;;;;;;6.03;4.20;;;9.40;99.90;;;;;;5020622;28;20655;-68
2021/11/02 02:37:46;;;;;;;6.23;4.00;;;9.40;99.90;;;;;;5017826;28;20703;-68
2021/11/02 02:40:13;;;;;;;9.60;5.03;;;9.30;99.90;;;;;;5017893;28;20647;-68
2021/11/02 02:42:43;;;;;;;7.03;4.30;;;9.30;99.90;;;;;;5016845;28;20735;-68
2021/11/02 02:45:13;;;;;;;6.83;4.37;;;9.30;99.90;;;;;;5020277;28;20646;-67
2021/11/02 02:47:45;;;;;;;4.80;4.10;;;9.30;99.90;;;;;;5023809;28;20603;-68
2021/11/02 02:50:21;;;;;;;6.50;4.07;;;9.30;99.90;;;;;;5017564;28;20596;-67
2021/11/02 02:52:55;;;;;;;5.57;4.33;;;9.30;99.90;;;;;;5018651;28;20638;-68
2021/11/02 02:55:22;;;;;;;6.27;4.53;;;9.20;99.90;;;;;;5024446;28;20611;-68
2021/11/02 02:57:53;;;;;;;4.87;4.23;;;9.20;99.90;;;;;;5024930;28;20984;-68
2021/11/02 03:00:21;;;;;;;7.00;4.30;;;9.20;99.90;;;;;;5022655;28;20651;-67
2021/11/02 03:02:51;;;;;;;8.63;3.83;;;9.20;99.90;;;;;;5024028;28;20688;-69
2021/11/02 03:05:19;;;;;;;5.50;4.30;;;9.10;99.90;;;;;;5020705;28;20631;-68
2021/11/02 03:07:47;;;;;;;6.97;4.00;;;9.20;99.90;;;;;;5022941;28;20643;-67
2021/11/02 03:10:21;;;;;;;5.40;4.27;;;9.20;99.90;;;;;;5021670;28;20639;-68
2021/11/02 03:13:01;;;;;;;6.30;5.70;;;9.10;99.90;;;;;;5022706;28;20710;-65
2021/11/02 03:57:20;;;;;;;6.83;4.40;;;8.90;99.90;;;;;;5023960;28;20624;-68
2021/11/02 04:23:29;;;;;;;4.30;3.80;;;8.60;99.90;;;;;;5022130;28;20629;-68
2021/11/02 05:50:22;;;;;;;9.53;4.83;;;8.20;99.90;;;;;;5015019;28;20674;-66
2021/11/02 06:01:08;;;;;;;5.60;5.03;;;8.20;99.90;;;;;;4999558;28;20652;-68
2021/11/02 06:23:42;;;;;;;6.67;5.80;;;8.30;99.90;;;;;;5016786;28;20701;-67
2021/11/02 06:29:18;;;;;;;5.93;5.33;;;8.40;99.90;;;;;;5028390;28;20707;-67
2021/11/02 06:31:57;;;;;;;6.90;5.33;;;8.40;99.90;;;;;;5024277;28;20712;-66
2021/11/02 06:34:36;;;;;;;6.73;5.70;;;8.50;99.90;;;;;;5025169;28;20623;-67
2021/11/02 06:42:49;;;;;;;7.40;5.20;;;8.50;99.90;;;;;;5021187;28;21193;-67
2021/11/02 06:45:43;;;;;;;7.53;5.80;;;8.60;99.90;;;;;;5011121;28;20603;-67
2021/11/02 06:54:12;;;;;;;11.07;5.70;;;8.60;99.90;;;;;;5026045;28;20642;-68
2021/11/02 07:15:25;;;;;;;6.80;5.70;;;8.50;99.90;;;;;;5025558;28;20693;-67
2021/11/02 07:19:30;;;;;;;6.90;6.20;;;8.60;99.90;;;;;;5029261;28;20598;-67
2021/11/02 07:24:33;;;;;;;8.07;6.77;;;8.60;99.90;;;;;;5027809;28;20693;-66
2021/11/02 08:46:23;;;;;;;9.23;6.67;;;9.40;99.90;;;;;;5025665;28;20579;-66
2021/11/02 08:48:56;;;;;;;10.17;7.40;;;9.40;99.90;;;;;;5026504;28;20649;-67
2021/11/02 08:51:28;;;;;;;10.13;8.47;;;9.50;99.90;;;;;;5023314;28;20627;-67
2021/11/02 08:53:56;;;;;;;12.50;7.90;;;9.50;99.90;;;;;;5027542;28;21314;-66
2021/11/02 08:56:30;;;;;;;12.10;7.27;;;9.60;99.90;;;;;;5026161;28;20713;-67
2021/11/02 08:58:58;;;;;;;7.60;6.80;;;9.60;99.90;;;;;;5027324;28;20594;-67
2021/11/02 09:01:28;;;;;;;9.97;7.33;;;9.70;99.90;;;;;;5025234;28;20700;-66
2021/11/02 09:04:02;;;;;;;10.20;7.63;;;9.70;99.90;;;;;;5027088;28;21185;-67
2021/11/02 09:06:31;;;;;;;8.63;7.10;;;9.80;99.90;;;;;;5025919;28;20923;-67
2021/11/02 09:09:02;;;;;;;10.77;7.43;;;9.80;99.90;;;;;;5024496;28;20669;-67
2021/11/02 09:11:31;;;;;;;13.37;7.40;;;9.90;99.90;;;;;;5024632;28;21045;-67
2021/11/02 09:14:00;;;;;;;9.87;7.80;;;9.90;99.90;;;;;;5026648;28;20654;-67
2021/11/02 09:16:26;;;;;;;9.70;7.47;;;10.10;99.90;;;;;;5025218;28;21613;-67
2021/11/02 09:18:56;;;;;;;12.17;8.60;;;10.10;99.90;;;;;;5025602;28;20946;-66
2021/11/02 09:21:24;;;;;;;11.63;7.23;;;10.20;99.90;;;;;;5023285;28;20623;-67
2021/11/02 09:23:52;;;;;;;7.73;6.83;;;10.30;99.90;;;;;;5024590;28;21150;-67
2021/11/02 09:26:20;;;;;;;10.17;7.70;;;10.40;99.90;;;;;;5007256;28;20615;-67
2021/11/02 09:28:49;;;;;;;11.97;6.83;;;10.60;99.90;;;;;;5027028;28;20903;-68
2021/11/02 09:31:21;;;;;;;10.33;7.40;;;10.50;99.90;;;;;;5025307;28;20926;-67
2021/11/02 09:33:48;;;;;;;12.50;7.30;;;10.60;99.90;;;;;;5024871;28;21064;-67
2021/11/02 09:36:18;;;;;;;11.87;7.50;;;10.70;99.90;;;;;;5025918;28;20829;-67
2021/11/02 09:38:50;;;;;;;11.13;8.03;;;10.80;99.90;;;;;;5026370;28;20600;-67
2021/11/02 09:41:58;;;;;;;8.47;6.37;;;10.90;99.90;;;;;;5021421;28;21043;-67
2021/11/02 09:45:17;;;;;;;9.60;7.43;;;11.00;99.90;;;;;;5024587;28;20921;-67
2021/11/02 09:48:28;;;;;;;7.23;5.90;;;11.10;99.90;;;;;;4999902;28;20647;-68
2021/11/02 09:51:30;;;;;;;7.60;6.00;;;11.20;99.90;;;;;;4991873;28;20634;-65
2021/11/02 09:54:21;;;;;;;7.60;5.73;;;11.30;99.90;;;;;;5026856;28;20627;-67
2021/11/02 09:57:03;;;;;;;7.20;6.10;;;11.40;99.90;;;;;;5022765;28;21127;-64
2021/11/02 10:00:03;;;;;;;9.27;6.10;;;11.40;99.90;;;;;;5024430;28;20634;-65
2021/11/02 10:02:50;;;;;;;7.50;5.50;;;11.50;99.90;;;;;;5025631;28;20646;-64
2021/11/02 10:05:37;;;;;;;;;;;;;;;;;;;;;
2021/11/02 10:08:27;;;;;;;9.00;4.80;;;11.60;99.90;;;;;;5025870;28;20715;-65
2021/11/02 10:11:02;;;;;;;8.23;5.00;;;11.70;99.90;;;;;;5024441;28;20643;-65
2021/11/02 10:14:16;;;;;;;7.40;5.60;;;11.80;99.90;;;;;;5026140;28;20680;-64
2021/11/02 10:17:25;;;;;;;5.67;4.33;;;11.90;99.90;;;;;;5000428;28;20690;-64
2021/11/02 10:20:19;;;;;;;6.77;5.30;;;11.90;99.90;;;;;;5027439;28;21126;-64
2021/11/02 10:23:08;;;;;;;5.70;4.60;;;11.90;99.90;;;;;;5024746;28;20631;-66
2021/11/02 10:26:11;;;;;;;6.40;4.60;;;11.90;99.90;;;;;;5024165;28;20622;-64
2021/11/02 10:29:04;;;;;;;5.27;4.30;;;12.00;99.90;;;;;;5024808;28;20603;-64
2021/11/02 10:31:32;;;;;;;6.30;4.60;;;12.00;99.90;;;;;;5023600;28;20647;-66
2021/11/02 10:34:12;;;;;;;7.30;5.10;;;12.10;99.90;;;;;;5008093;28;20738;-64
2021/11/02 10:36:50;;;;;;;10.43;4.83;;;12.10;99.90;;;;;;5024937;28;20693;-64
2021/11/02 10:39:34;;;;;;;;;;;;;;;;;;;;;
2021/11/02 10:42:13;;;;;;;6.20;5.20;;;12.20;99.90;;;;;;4989387;28;20639;-65
2021/11/02 10:44:48;;;;;;;8.77;5.20;;;12.30;99.90;;;;;;5026353;28;21150;-65
2021/11/02 10:47:32;;;;;;;6.60;5.03;;;12.30;99.90;;;;;;5026549;28;20622;-66
2021/11/02 10:50:06;;;;;;;7.10;5.63;;;12.50;99.90;;;;;;5024382;28;21226;-66
2021/11/02 10:52:39;;;;;;;9.13;5.47;;;12.50;99.90;;;;;;5026628;28;20627;-66
2021/11/02 10:55:18;;;;;;;8.60;6.00;;;12.70;99.90;;;;;;5027235;28;21236;-67
2021/11/02 10:58:03;;;;;;;6.93;5.70;;;12.80;99.90;;;;;;5024642;28;20934;-67
2021/11/02 11:00:32;;;;;;;7.10;6.17;;;12.90;99.90;;;;;;5016526;28;20790;-66
2021/11/02 11:03:04;;;;;;;11.87;6.93;;;12.90;99.90;;;;;;5024983;28;20715;-67
2021/11/02 11:05:34;;;;;;;7.07;5.67;;;13.00;99.90;;;;;;5023551;28;20615;-67
2021/11/02 11:08:05;;;;;;;9.57;6.07;;;13.00;99.90;;;;;;5024442;28;20964;-67
2021/11/02 11:10:32;;;;;;;7.60;5.80;;;13.00;99.90;;;;;;5028036;28;20758;-67
2021/11/02 11:13:30;;;;;;;5.87;4.70;;;13.10;99.90;;;;;;5027762;28;20753;-67
2021/11/02 11:16:10;;;;;;;10.33;6.60;;;13.10;99.90;;;;;;5028014;28;20990;-67
2021/11/02 11:19:12;;;;;;;7.80;5.60;;;13.20;99.90;;;;;;5029594;28;20662;-66
2021/11/02 11:21:46;;;;;;;10.37;6.00;;;13.30;99.90;;;;;;5026666;28;20697;-67
2021/11/02 11:24:33;;;;;;;6.97;5.03;;;13.60;99.90;;;;;;5029286;28;20966;-66
2021/11/02 11:27:06;;;;;;;6.47;5.40;;;14.10;99.90;;;;;;5026323;28;20583;-67
2021/11/02 11:29:35;;;;;;;8.27;5.10;;;14.30;99.90;;;;;;5027714;28;20821;-67
2021/11/02 11:32:01;;;;;;;8.37;5.87;;;15.00;99.90;;;;;;5024763;28;20631;-67
2021/11/02 11:34:36;;;;;;;6.87;4.80;;;16.60;99.90;;;;;;5027124;28;20614;-67
2021/11/02 11:37:03;;;;;;;6.67;6.00;;;20.10;99.90;;;;;;5026522;28;20208;-67
2021/11/02 11:39:30;;;;;;;8.20;6.80;;;23.40;99.90;;;;;;5008130;28;20645;-65
2021/11/02 11:41:58;;;;;;;6.83;5.60;;;26.60;99.90;;;;;;5023675;28;20622;-65
2021/11/02 11:44:27;;;;;;;8.20;5.87;;;29.10;99.40;;;;;;5026870;28;21150;-66
2021/11/02 11:47:09;;;;;;;6.40;5.80;;;31.40;88.30;;;;;;5027063;28;20618;-65
2021/11/02 11:49:39;;;;;;;8.50;6.37;;;33.40;73.90;;;;;;5007426;28;20737;-66
2021/11/02 11:52:06;;;;;;;7.40;6.03;;;35.00;64.70;;;;;;5026514;28;20626;-66
2021/11/02 11:55:06;;;;;;;6.60;6.10;;;36.10;58.10;;;;;;5027034;28;20595;-66
2021/11/02 11:57:36;;;;;;;7.33;6.10;;;37.30;53.80;;;;;;5024667;28;20595;-66
2021/11/02 12:00:11;;;;;;;7.03;6.40;;;38.10;50.30;;;;;;5005871;28;21161;-66
2021/11/02 12:03:08;;;;;;;9.53;6.73;;;38.30;48.60;;;;;;5026520;28;20631;-66
2021/11/02 12:05:44;;;;;;;7.80;6.30;;;38.70;46.50;;;;;;5026558;28;21041;-66
2021/11/02 12:08:44;;;;;;;5.80;5.30;;;38.80;45.90;;;;;;5026808;28;20795;-66
2021/11/02 12:11:24;;;;;;;5.90;5.27;;;38.80;45.10;;;;;;5011418;28;21072;-65
2021/11/02 12:13:53;;;;;;;5.97;5.40;;;37.70;44.40;;;;;;5027372;28;21038;-65
2021/11/02 12:16:34;;;;;;;7.40;5.53;;;37.50;45.80;;;;;;5026923;28;21048;-66
2021/11/02 12:19:35;;;;;;;6.80;6.10;;;37.70;45.40;;;;;;5025887;28;20656;-65
2021/11/02 12:22:06;;;;;;;6.00;5.60;;;37.40;44.70;;;;;;5026259;28;20631;-65
2021/11/02 12:24:38;;;;;;;6.70;6.00;;;36.20;44.60;;;;;;5008045;28;20722;-65
2021/11/02 12:27:17;;;;;;;7.97;7.20;;;35.10;47.30;;;;;;5026925;28;21304;-65
2021/11/02 12:29:52;;;;;;;7.17;5.90;;;35.10;46.50;;;;;;5008618;28;20676;-66
2021/11/02 12:32:25;;;;;;;6.80;5.93;;;35.60;46.30;;;;;;5024624;28;21245;-67
2021/11/02 12:35:08;;;;;;;6.17;5.50;;;36.20;45.20;;;;;;5023109;28;20925;-66
2021/11/02 12:37:37;;;;;;;6.13;5.60;;;36.70;45.50;;;;;;5024722;28;20626;-67
2021/11/02 12:40:21;;;;;;;6.20;5.20;;;37.50;43.90;;;;;;5024556;28;20699;-66
2021/11/02 12:42:47;;;;;;;5.70;5.10;;;37.70;44.00;;;;;;5023227;28;20642;-66
2021/11/02 12:45:18;;;;;;;10.13;6.20;;;38.00;43.50;;;;;;5012771;28;20654;-66
2021/11/02 12:47:48;;;;;;;5.80;5.20;;;38.20;43.00;;;;;;5022884;28;20611;-67
2021/11/02 12:50:29;;;;;;;8.50;5.43;;;37.60;42.60;;;;;;5024123;28;20623;-66
2021/11/02 12:52:57;;;;;;;6.63;6.03;;;36.80;43.00;;;;;;5025504;28;20626;-68
2021/11/02 12:55:29;;;;;;;6.00;5.40;;;35.10;44.10;;;;;;5023894;28;20615;-67
2021/11/02 12:58:15;;;;;;;5.67;5.27;;;32.70;46.50;;;;;;5025886;28;20596;-66
2021/11/02 13:00:50;;;;;;;6.13;5.53;;;30.60;48.70;;;;;;5023703;28;20639;-66
2021/11/02 13:03:25;;;;;;;7.73;5.83;;;28.60;51.30;;;;;;4998108;28;20652;-65
2021/11/02 13:06:08;;;;;;;8.40;6.00;;;27.20;54.20;;;;;;5025099;28;21241;-65
2021/11/02 13:08:39;;;;;;;8.50;5.50;;;25.70;56.80;;;;;;5024023;28;20619;-65
2021/11/02 13:11:09;;;;;;;8.83;5.40;;;24.60;58.90;;;;;;5024714;28;20620;-68
2021/11/02 13:14:03;;;;;;;10.83;6.00;;;23.30;62.00;;;;;;5025021;28;20650;-64
2021/11/02 13:16:52;;;;;;;6.90;6.03;;;22.30;66.40;;;;;;5024252;28;20639;-63
2021/11/02 13:19:17;;;;;;;8.90;5.70;;;21.20;69.40;;;;;;5025522;28;20612;-64
2021/11/02 13:21:45;;;;;;;7.13;5.43;;;20.80;73.90;;;;;;5023398;28;20647;-65
2021/11/02 13:24:22;;;;;;;6.80;4.70;;;20.20;79.90;;;;;;5024785;28;20212;-65
2021/11/02 13:26:59;;;;;;;5.83;4.60;;;19.70;83.80;;;;;;5024420;28;21098;-65
2021/11/02 13:29:27;;;;;;;5.73;5.13;;;19.30;87.50;;;;;;5025112;28;20657;-65
2021/11/02 13:32:03;;;;;;;5.43;4.90;;;18.90;91.10;;;;;;5004675;28;20647;-65
2021/11/02 13:34:33;;;;;;;5.97;4.80;;;18.50;92.00;;;;;;5024549;28;20773;-66
2021/11/02 13:37:01;;;;;;;6.40;4.33;;;18.20;93.70;;;;;;5025081;28;21068;-66
2021/11/02 13:39:30;;;;;;;4.77;4.00;;;17.90;96.20;;;;;;5023441;28;20604;-68
2021/11/02 13:41:59;;;;;;;3.43;3.13;;;17.70;98.50;;;;;;5022360;28;21151;-65
2021/11/02 13:44:26;;;;;;;6.67;4.67;;;17.50;99.90;;;;;;5019287;28;20645;-65
2021/11/02 13:46:59;;;;;;;7.47;4.30;;;17.30;99.90;;;;;;5025174;28;20689;-65
2021/11/02 13:49:27;;;;;;;5.77;3.90;;;17.20;99.90;;;;;;5024291;28;20697;-65
2021/11/02 13:52:05;;;;;;;5.87;4.30;;;16.90;99.90;;;;;;5006169;28;20623;-65
2021/11/02 13:54:33;;;;;;;5.50;3.27;;;16.80;99.90;;;;;;5023411;28;20619;-66
2021/11/02 13:57:06;;;;;;;3.93;3.27;;;16.60;99.90;;;;;;5025652;28;21181;-67
2021/11/02 13:59:37;;;;;;;5.47;3.17;;;16.60;99.90;;;;;;5025448;28;20626;-67
2021/11/02 14:02:05;;;;;;;4.40;3.53;;;16.30;99.90;;;;;;5006716;28;20639;-66
2021/11/02 14:04:37;;;;;;;3.63;3.27;;;16.20;99.90;;;;;;5026581;28;21073;-67
2021/11/02 14:07:22;;;;;;;5.07;3.50;;;16.20;99.90;;;;;;5026373;28;20655;-65
2021/11/02 14:09:54;;;;;;;4.90;3.83;;;16.00;99.90;;;;;;5024881;28;20631;-67
2021/11/02 14:12:52;;;;;;;3.67;3.07;;;16.00;99.90;;;;;;5001538;28;20643;-67
2021/11/02 14:15:20;;;;;;;3.80;3.27;;;15.90;99.90;;;;;;5017173;28;20805;-67
2021/11/02 14:18:10;;;;;;;3.30;3.00;;;15.80;99.90;;;;;;5027739;28;20946;-67
2021/11/02 14:20:49;;;;;;;4.83;3.13;;;15.70;99.90;;;;;;5026002;28;21222;-67
2021/11/02 14:23:29;;;;;;;7.63;3.50;;;15.70;99.90;;;;;;5020772;28;20635;-64
2021/11/02 14:26:29;;;;;;;3.67;3.13;;;15.60;99.90;;;;;;5022836;28;21077;-62
2021/11/02 14:29:10;;;;;;;2.97;2.73;;;15.60;99.90;;;;;;5022293;28;20669;-66
2021/11/02 14:31:38;;;;;;;4.17;3.50;;;15.50;99.90;;;;;;5024306;28;20639;-66
2021/11/02 14:34:10;;;;;;;4.63;3.20;;;15.60;99.90;;;;;;5024850;28;20712;-67
2021/11/02 14:36:40;;;;;;;3.23;2.93;;;15.50;99.90;;;;;;5022818;28;20611;-67
2021/11/02 14:39:07;;;;;;;4.90;3.03;;;15.50;99.90;;;;;;5022295;28;20626;-67
2021/11/02 14:41:35;;;;;;;3.23;2.93;;;15.40;99.90;;;;;;5013317;28;21170;-67
2021/11/02 14:44:24;;;;;;;4.70;2.67;;;15.30;99.90;;;;;;5023980;28;20647;-66
2021/11/02 14:46:59;;;;;;;3.57;3.00;;;15.30;99.90;;;;;;5020487;28;20746;-67
2021/11/02 14:49:30;;;;;;;6.00;3.23;;;15.20;99.90;;;;;;5023688;28;20686;-67
2021/11/02 14:52:26;;;;;;;3.20;2.87;;;15.20;99.90;;;;;;5025475;28;20638;-68
2021/11/02 14:54:57;;;;;;;4.30;3.90;;;15.10;99.90;;;;;;5007070;28;20650;-68
2021/11/02 14:57:28;;;;;;;2.30;2.10;;;15.10;99.90;;;;;;5025686;28;20615;-68
2021/11/02 15:00:04;;;;;;;7.17;2.83;;;15.00;99.90;;;;;;5025829;28;20616;-69
2021/11/02 15:02:37;;;;;;;4.70;2.27;;;14.90;99.90;;;;;;5023910;28;20657;-69
2021/11/02 15:05:10;;;;;;;2.80;2.40;;;14.90;99.90;;;;;;5024941;28;20638;-66
2021/11/02 15:07:39;;;;;;;3.23;2.23;;;14.80;99.90;;;;;;5027592;28;21077;-67
2021/11/02 15:10:09;;;;;;;5.47;2.60;;;14.70;99.90;;;;;;5026619;28;20622;-67
2021/11/02 15:12:36;;;;;;;3.67;2.53;;;14.60;99.90;;;;;;5024881;28;20729;-67
2021/11/02 15:15:13;;;;;;;4.20;2.70;;;14.50;99.90;;;;;;5025679;28;20658;-67
2021/11/02 15:17:39;;;;;;;7.03;3.17;;;14.40;99.90;;;;;;5025627;28;20666;-66
2021/11/02 15:20:06;;;;;;;4.87;3.87;;;14.30;99.90;;;;;;5021665;28;20717;-69
2021/11/02 15:22:34;;;;;;;3.73;3.20;;;14.20;99.90;;;;;;5026363;28;20744;-68
2021/11/02 15:25:02;;;;;;;4.83;3.23;;;14.10;99.90;;;;;;5023756;28;20681;-68
2021/11/02 15:27:33;;;;;;;4.70;3.43;;;14.00;99.90;;;;;;5027896;28;20738;-69
2021/11/02 15:30:11;;;;;;;3.30;3.00;;;14.00;99.90;;;;;;5027188;28;20615;-68
2021/11/02 15:32:42;;;;;;;4.13;3.10;;;13.90;99.90;;;;;;5026802;28;20651;-68
2021/11/02 15:35:10;;;;;;;4.53;3.80;;;13.80;99.90;;;;;;5026365;28;20589;-68
2021/11/02 15:37:42;;;;;;;5.77;3.57;;;13.80;99.90;;;;;;5025009;28;20618;-69
2021/11/02 15:40:18;;;;;;;4.83;3.57;;;13.70;99.90;;;;;;5024718;28;20738;-68
2021/11/02 15:42:46;;;;;;;6.33;3.60;;;13.60;99.90;;;;;;5026949;28;20709;-69
2021/11/02 15:45:34;;;;;;;4.10;3.60;;;13.40;99.90;;;;;;5024677;28;20615;-68
2021/11/02 15:48:06;;;;;;;3.77;2.90;;;13.40;99.90;;;;;;5015990;28;20633;-69
2021/11/02 15:50:33;;;;;;;4.07;3.67;;;13.30;99.90;;;;;;5021513;28;21209;-69
2021/11/02 15:53:06;;;;;;;4.20;3.20;;;13.40;99.90;;;;;;5019952;28;21183;-66
2021/11/02 15:55:39;;;;;;;4.40;3.67;;;13.20;99.90;;;;;;5001256;28;20650;-68
2021/11/02 15:58:12;;;;;;;4.57;3.63;;;13.10;99.90;;;;;;5026708;28;20683;-67
2021/11/02 16:00:43;;;;;;;7.07;3.50;;;13.10;99.90;;;;;;5006634;28;20639;-67
2021/11/02 16:03:10;;;;;;;4.13;3.33;;;13.00;99.90;;;;;;5019939;28;20627;-66
2021/11/02 16:05:38;;;;;;;4.37;3.43;;;12.90;99.90;;;;;;5024429;28;20651;-66
2021/11/02 16:08:19;;;;;;;6.67;3.70;;;12.90;99.90;;;;;;5022406;28;20619;-67
2021/11/02 16:11:06;;;;;;;5.90;4.13;;;12.80;99.90;;;;;;5026923;28;21173;-70
2021/11/02 16:13:32;;;;;;;7.50;4.63;;;12.80;99.90;;;;;;5026738;28;20921;-67
2021/11/02 16:16:03;;;;;;;5.53;3.90;;;12.70;99.90;;;;;;5027562;28;20651;-71
2021/11/02 16:18:37;;;;;;;6.77;4.50;;;12.60;99.90;;;;;;5029018;28;20201;-67
2021/11/02 16:21:10;;;;;;;6.37;4.10;;;12.50;99.90;;;;;;5026438;28;20790;-67
2021/11/02 16:23:47;;;;;;;5.77;4.57;;;12.40;99.90;;;;;;5026912;28;20666;-67
2021/11/02 16:26:21;;;;;;;6.53;4.37;;;12.40;99.90;;;;;;5022159;28;21082;-66
2021/11/02 16:28:51;;;;;;;5.10;4.20;;;12.30;99.90;;;;;;5023619;28;20622;-66
2021/11/02 16:31:30;;;;;;;5.00;4.60;;;12.30;99.90;;;;;;5018376;28;20729;-66
2021/11/02 16:33:56;;;;;;;6.90;5.30;;;12.30;99.90;;;;;;5023499;28;20665;-66
2021/11/02 16:36:24;;;;;;;4.90;4.50;;;12.20;99.90;;;;;;5015113;28;21022;-66
2021/11/02 16:39:19;;;;;;;5.70;4.70;;;12.20;99.90;;;;;;5020483;28;20630;-66
2021/11/02 16:41:48;;;;;;;6.43;5.10;;;12.10;99.90;;;;;;5023242;28;20642;-66
2021/11/02 16:44:38;;;;;;;7.37;4.70;;;12.00;99.90;;;;;;5022602;28;20681;-65
2021/11/02 16:47:14;;;;;;;6.37;5.10;;;11.90;99.90;;;;;;5020004;28;20618;-65
2021/11/02 16:49:43;;;;;;;5.33;4.80;;;11.80;99.90;;;;;;5019641;28;21328;-65
2021/11/02 16:52:25;;;;;;;6.47;5.30;;;11.80;99.90;;;;;;5020832;28;20691;-65
2021/11/02 16:55:10;;;;;;;6.23;5.63;;;11.80;99.90;;;;;;5024507;28;20632;-66
2021/11/02 16:57:39;;;;;;;8.43;5.33;;;11.70;99.90;;;;;;5018159;28;21420;-65
2021/11/02 17:00:12;;;;;;;6.10;5.50;;;11.70;99.90;;;;;;5017745;28;20623;-65
2021/11/02 17:02:42;;;;;;;5.13;4.73;;;11.60;99.90;;;;;;5018765;28;20628;-65
2021/11/02 17:05:15;;;;;;;11.37;5.87;;;11.60;99.90;;;;;;5020928;28;20702;-68
2021/11/02 17:07:50;;;;;;;6.53;5.30;;;11.50;99.90;;;;;;5015632;28;21023;-65
2021/11/02 17:10:30;;;;;;;7.00;6.33;;;11.40;99.90;;;;;;5017463;28;20722;-66
2021/11/02 17:13:03;;;;;;;6.57;5.80;;;11.40;99.90;;;;;;5023489;28;21056;-67
2021/11/02 17:15:45;;;;;;;7.00;6.07;;;11.30;99.90;;;;;;5020595;28;21167;-67
2021/11/02 17:18:15;;;;;;;6.37;5.40;;;11.30;99.90;;;;;;5013440;28;20727;-66
2021/11/02 17:21:00;;;;;;;6.30;5.60;;;11.20;99.90;;;;;;5013384;28;20642;-66
2021/11/02 17:23:28;;;;;;;6.23;5.70;;;11.20;99.90;;;;;;5020816;28;21058;-66
2021/11/02 17:25:56;;;;;;;7.27;5.80;;;11.10;99.90;;;;;;5014395;28;20681;-68
2021/11/02 17:28:22;;;;;;;6.17;5.57;;;11.10;99.90;;;;;;5017634;28;20649;-66
2021/11/02 17:30:48;;;;;;;7.50;6.20;;;11.10;99.90;;;;;;5019377;28;20718;-68
2021/11/02 17:33:16;;;;;;;7.83;6.63;;;11.00;99.90;;;;;;5016417;28;20709;-68
2021/11/02 17:35:48;;;;;;;9.13;7.43;;;11.00;99.90;;;;;;5010231;28;20786;-66
2021/11/02 17:38:14;;;;;;;9.93;6.87;;;10.90;99.90;;;;;;5011995;28;20626;-68
2021/11/02 17:40:41;;;;;;;8.53;7.23;;;10.90;99.90;;;;;;5013175;28;20641;-68
2021/11/02 17:43:07;;;;;;;7.47;6.80;;;10.80;99.90;;;;;;5020398;28;20662;-67
2021/11/02 17:45:35;;;;;;;6.73;6.00;;;10.80;99.90;;;;;;5011215;28;21163;-67
2021/11/02 17:48:02;;;;;;;8.40;6.30;;;10.70;99.90;;;;;;5012657;28;21076;-67
2021/11/02 17:50:32;;;;;;;6.83;6.23;;;10.70;99.90;;;;;;5014777;28;20666;-68
2021/11/02 17:52:58;;;;;;;9.13;6.77;;;10.60;99.90;;;;;;5021847;28;20658;-67
2021/11/02 17:55:24;;;;;;;8.70;6.57;;;10.60;99.90;;;;;;5022087;28;20845;-68
2021/11/02 17:57:51;;;;;;;7.10;6.40;;;10.50;99.90;;;;;;5018678;28;21111;-67
2021/11/02 18:00:24;;;;;;;8.60;6.00;;;10.50;99.90;;;;;;5020571;28;20655;-68
2021/11/02 18:02:54;;;;;;;7.40;6.27;;;10.40;99.90;;;;;;5020120;28;20643;-68
2021/11/02 18:05:35;;;;;;;8.50;7.43;;;10.30;99.90;;;;;;5020528;28;21155;-68
2021/11/02 18:08:07;;;;;;;11.10;6.57;;;10.30;99.90;;;;;;5016590;28;20602;-68
2021/11/02 18:10:35;;;;;;;10.50;7.07;;;10.20;99.90;;;;;;5013157;28;20651;-67
2021/11/02 18:13:05;;;;;;;9.20;6.80;;;10.20;99.90;;;;;;5018247;28;20871;-68
2021/11/02 18:15:36;;;;;;;14.60;7.20;;;10.20;99.90;;;;;;5023454;28;20974;-68
2021/11/02 18:18:10;;;;;;;9.47;7.10;;;10.10;99.90;;;;;;5019647;28;20998;-68
2021/11/02 18:20:37;;;;;;;8.90;7.53;;;10.10;99.90;;;;;;5024751;28;20647;-67
2021/11/02 18:23:03;;;;;;;8.20;6.83;;;10.00;99.90;;;;;;5026126;28;21035;-68